sensor_id;sensor_type;location;lat;lon;timestamp;P1;durP1;ratioP1;P2;durP2;ratioP2
36547;SDS011;22551;52.206;4.856;2022-12-11T00:03:42;50.42;;;16.80;;
36547;SDS011;22551;52.206;4.856;2022-12-11T00:08:45;49.28;;;17.35;;
36547;SDS011;22551;52.206;4.856;2022-12-11T00:13:49;54.30;;;18.02;;
36547;SDS011;22551;52.206;4.856;2022-12-11T00:18:51;53.72;;;18.02;;
36547;SDS011;22551;52.206;4.856;2022-12-11T00:23:54;49.03;;;17.98;;
36547;SDS011;22551;52.206;4.856;2022-12-11T00:28:58;60.55;;;18.42;;
36547;SDS011;22551;52.206;4.856;2022-12-11T00:34:00;56.58;;;19.27;;
36547;SDS011;22551;52.206;4.856;2022-12-11T00:39:03;48.88;;;17.10;;
36547;SDS011;22551;52.206;4.856;2022-12-11T00:44:07;50.58;;;17.92;;
36547;SDS011;22551;52.206;4.856;2022-12-11T00:49:09;52.03;;;18.10;;
36547;SDS011;22551;52.206;4.856;2022-12-11T00:54:11;56.38;;;18.17;;
36547;SDS011;22551;52.206;4.856;2022-12-11T00:59:16;57.15;;;18.13;;
36547;SDS011;22551;52.206;4.856;2022-12-11T01:04:19;49.72;;;20.15;;
36547;SDS011;22551;52.206;4.856;2022-12-11T01:09:22;54.10;;;20.00;;
36547;SDS011;22551;52.206;4.856;2022-12-11T01:14:43;57.95;;;19.73;;
36547;SDS011;22551;52.206;4.856;2022-12-11T01:19:45;55.22;;;18.98;;
36547;SDS011;22551;52.206;4.856;2022-12-11T01:24:47;51.92;;;17.45;;
36547;SDS011;22551;52.206;4.856;2022-12-11T01:29:51;47.63;;;16.13;;
36547;SDS011;22551;52.206;4.856;2022-12-11T01:34:53;44.85;;;16.48;;
36547;SDS011;22551;52.206;4.856;2022-12-11T01:39:56;47.50;;;19.65;;
36547;SDS011;22551;52.206;4.856;2022-12-11T01:50:29;40.22;;;16.85;;
36547;SDS011;22551;52.206;4.856;2022-12-11T01:55:34;42.90;;;16.08;;
36547;SDS011;22551;52.206;4.856;2022-12-11T02:00:39;44.30;;;16.27;;
36547;SDS011;22551;52.206;4.856;2022-12-11T02:05:41;44.03;;;16.13;;
36547;SDS011;22551;52.206;4.856;2022-12-11T02:10:48;46.72;;;17.00;;
36547;SDS011;22551;52.206;4.856;2022-12-11T02:16:08;39.40;;;15.90;;
36547;SDS011;22551;52.206;4.856;2022-12-11T02:21:21;40.42;;;15.02;;
36547;SDS011;22551;52.206;4.856;2022-12-11T02:26:36;40.13;;;14.65;;
36547;SDS011;22551;52.206;4.856;2022-12-11T02:31:57;38.65;;;14.65;;
36547;SDS011;22551;52.206;4.856;2022-12-11T02:37:08;39.85;;;16.05;;
36547;SDS011;22551;52.206;4.856;2022-12-11T02:42:16;30.02;;;12.30;;
36547;SDS011;22551;52.206;4.856;2022-12-11T02:47:21;37.78;;;14.90;;
36547;SDS011;22551;52.206;4.856;2022-12-11T02:52:25;40.58;;;15.02;;
36547;SDS011;22551;52.206;4.856;2022-12-11T03:02:38;38.87;;;15.03;;
36547;SDS011;22551;52.206;4.856;2022-12-11T03:07:42;30.52;;;14.05;;
36547;SDS011;22551;52.206;4.856;2022-12-11T03:12:45;29.90;;;13.32;;
36547;SDS011;22551;52.206;4.856;2022-12-11T03:17:56;28.38;;;13.18;;
36547;SDS011;22551;52.206;4.856;2022-12-11T03:23:08;32.40;;;11.98;;
36547;SDS011;22551;52.206;4.856;2022-12-11T03:28:21;24.30;;;10.65;;
36547;SDS011;22551;52.206;4.856;2022-12-11T03:33:32;27.77;;;11.77;;
36547;SDS011;22551;52.206;4.856;2022-12-11T03:38:39;26.20;;;11.18;;
36547;SDS011;22551;52.206;4.856;2022-12-11T03:43:48;28.00;;;11.02;;
36547;SDS011;22551;52.206;4.856;2022-12-11T03:48:54;25.90;;;10.20;;
36547;SDS011;22551;52.206;4.856;2022-12-11T03:54:00;28.35;;;11.10;;
36547;SDS011;22551;52.206;4.856;2022-12-11T03:59:03;28.50;;;11.00;;
36547;SDS011;22551;52.206;4.856;2022-12-11T04:04:07;27.45;;;11.85;;
36547;SDS011;22551;52.206;4.856;2022-12-11T04:09:09;28.52;;;12.55;;
36547;SDS011;22551;52.206;4.856;2022-12-11T04:14:12;30.40;;;11.15;;
36547;SDS011;22551;52.206;4.856;2022-12-11T04:19:33;28.00;;;11.90;;
36547;SDS011;22551;52.206;4.856;2022-12-11T04:24:53;31.13;;;11.82;;
36547;SDS011;22551;52.206;4.856;2022-12-11T04:29:55;27.02;;;10.90;;
36547;SDS011;22551;52.206;4.856;2022-12-11T04:34:59;28.00;;;11.70;;
36547;SDS011;22551;52.206;4.856;2022-12-11T04:40:01;30.05;;;11.30;;
36547;SDS011;22551;52.206;4.856;2022-12-11T04:45:05;31.33;;;12.38;;
36547;SDS011;22551;52.206;4.856;2022-12-11T04:50:11;30.23;;;11.70;;
36547;SDS011;22551;52.206;4.856;2022-12-11T04:55:15;33.28;;;12.65;;
36547;SDS011;22551;52.206;4.856;2022-12-11T05:00:17;28.38;;;10.85;;
36547;SDS011;22551;52.206;4.856;2022-12-11T05:05:21;30.50;;;13.30;;
36547;SDS011;22551;52.206;4.856;2022-12-11T05:10:23;33.33;;;12.52;;
36547;SDS011;22551;52.206;4.856;2022-12-11T05:15:25;25.75;;;11.85;;
36547;SDS011;22551;52.206;4.856;2022-12-11T05:20:29;32.85;;;11.82;;
36547;SDS011;22551;52.206;4.856;2022-12-11T05:25:31;36.40;;;12.93;;
36547;SDS011;22551;52.206;4.856;2022-12-11T05:30:33;35.25;;;13.70;;
36547;SDS011;22551;52.206;4.856;2022-12-11T05:35:37;31.33;;;11.70;;
36547;SDS011;22551;52.206;4.856;2022-12-11T05:40:40;32.00;;;12.70;;
36547;SDS011;22551;52.206;4.856;2022-12-11T05:45:42;34.97;;;13.95;;
36547;SDS011;22551;52.206;4.856;2022-12-11T05:50:54;28.15;;;11.93;;
36547;SDS011;22551;52.206;4.856;2022-12-11T05:56:01;29.55;;;12.23;;
36547;SDS011;22551;52.206;4.856;2022-12-11T06:01:07;32.40;;;11.95;;
36547;SDS011;22551;52.206;4.856;2022-12-11T06:06:12;29.07;;;13.13;;
36547;SDS011;22551;52.206;4.856;2022-12-11T06:11:15;37.58;;;12.23;;
36547;SDS011;22551;52.206;4.856;2022-12-11T06:16:18;31.30;;;12.43;;
36547;SDS011;22551;52.206;4.856;2022-12-11T06:21:24;28.58;;;12.10;;
36547;SDS011;22551;52.206;4.856;2022-12-11T06:26:28;26.70;;;11.15;;
36547;SDS011;22551;52.206;4.856;2022-12-11T06:31:31;24.33;;;11.05;;
36547;SDS011;22551;52.206;4.856;2022-12-11T06:36:34;26.02;;;10.73;;
36547;SDS011;22551;52.206;4.856;2022-12-11T06:41:37;27.42;;;10.90;;
36547;SDS011;22551;52.206;4.856;2022-12-11T06:46:39;25.25;;;9.77;;
36547;SDS011;22551;52.206;4.856;2022-12-11T06:51:42;22.92;;;10.80;;
36547;SDS011;22551;52.206;4.856;2022-12-11T06:56:45;22.65;;;9.80;;
36547;SDS011;22551;52.206;4.856;2022-12-11T07:01:47;25.73;;;10.07;;
36547;SDS011;22551;52.206;4.856;2022-12-11T07:06:51;24.17;;;10.45;;
36547;SDS011;22551;52.206;4.856;2022-12-11T07:11:54;24.30;;;9.35;;
36547;SDS011;22551;52.206;4.856;2022-12-11T07:16:56;23.30;;;9.10;;
36547;SDS011;22551;52.206;4.856;2022-12-11T07:22:00;29.25;;;10.30;;
36547;SDS011;22551;52.206;4.856;2022-12-11T07:27:02;23.40;;;10.25;;
36547;SDS011;22551;52.206;4.856;2022-12-11T07:32:05;26.35;;;10.25;;
36547;SDS011;22551;52.206;4.856;2022-12-11T07:37:11;22.95;;;9.35;;
36547;SDS011;22551;52.206;4.856;2022-12-11T07:42:13;32.97;;;11.32;;
36547;SDS011;22551;52.206;4.856;2022-12-11T07:47:16;28.15;;;11.80;;
36547;SDS011;22551;52.206;4.856;2022-12-11T07:52:20;30.45;;;11.05;;
36547;SDS011;22551;52.206;4.856;2022-12-11T07:57:22;33.67;;;12.98;;
36547;SDS011;22551;52.206;4.856;2022-12-11T08:02:24;35.25;;;13.05;;
36547;SDS011;22551;52.206;4.856;2022-12-11T08:07:28;32.88;;;11.70;;
36547;SDS011;22551;52.206;4.856;2022-12-11T08:12:31;34.15;;;12.38;;
36547;SDS011;22551;52.206;4.856;2022-12-11T08:17:35;34.05;;;12.55;;
36547;SDS011;22551;52.206;4.856;2022-12-11T08:22:39;29.17;;;11.65;;
36547;SDS011;22551;52.206;4.856;2022-12-11T08:27:41;33.63;;;12.25;;
36547;SDS011;22551;52.206;4.856;2022-12-11T08:32:43;30.33;;;12.40;;
36547;SDS011;22551;52.206;4.856;2022-12-11T08:37:47;33.50;;;13.18;;
36547;SDS011;22551;52.206;4.856;2022-12-11T08:42:49;29.38;;;11.77;;
36547;SDS011;22551;52.206;4.856;2022-12-11T08:47:52;34.17;;;12.30;;
36547;SDS011;22551;52.206;4.856;2022-12-11T08:52:56;31.77;;;12.10;;
36547;SDS011;22551;52.206;4.856;2022-12-11T08:57:58;30.67;;;10.87;;
36547;SDS011;22551;52.206;4.856;2022-12-11T09:03:01;34.72;;;13.50;;
36547;SDS011;22551;52.206;4.856;2022-12-11T09:08:05;35.65;;;13.07;;
36547;SDS011;22551;52.206;4.856;2022-12-11T09:13:07;37.83;;;13.38;;
36547;SDS011;22551;52.206;4.856;2022-12-11T09:18:09;30.52;;;12.02;;
36547;SDS011;22551;52.206;4.856;2022-12-11T09:23:14;37.92;;;13.57;;
36547;SDS011;22551;52.206;4.856;2022-12-11T09:28:16;30.67;;;13.30;;
36547;SDS011;22551;52.206;4.856;2022-12-11T09:33:21;41.08;;;15.50;;
36547;SDS011;22551;52.206;4.856;2022-12-11T09:38:25;38.63;;;16.13;;
36547;SDS011;22551;52.206;4.856;2022-12-11T09:43:30;38.47;;;15.65;;
36547;SDS011;22551;52.206;4.856;2022-12-11T09:48:39;39.90;;;15.50;;
36547;SDS011;22551;52.206;4.856;2022-12-11T09:53:48;35.67;;;14.43;;
36547;SDS011;22551;52.206;4.856;2022-12-11T09:58:55;33.42;;;13.35;;
36547;SDS011;22551;52.206;4.856;2022-12-11T10:04:15;36.85;;;14.45;;
36547;SDS011;22551;52.206;4.856;2022-12-11T10:09:37;35.95;;;14.50;;
36547;SDS011;22551;52.206;4.856;2022-12-11T10:14:53;40.15;;;16.73;;
36547;SDS011;22551;52.206;4.856;2022-12-11T10:20:17;38.83;;;15.27;;
36547;SDS011;22551;52.206;4.856;2022-12-11T10:25:27;37.30;;;15.10;;
36547;SDS011;22551;52.206;4.856;2022-12-11T10:30:34;35.97;;;14.90;;
36547;SDS011;22551;52.206;4.856;2022-12-11T10:35:39;35.25;;;14.02;;
36547;SDS011;22551;52.206;4.856;2022-12-11T10:40:48;36.08;;;12.75;;
36547;SDS011;22551;52.206;4.856;2022-12-11T10:45:53;31.73;;;14.07;;
36547;SDS011;22551;52.206;4.856;2022-12-11T10:50:57;36.40;;;14.77;;
36547;SDS011;22551;52.206;4.856;2022-12-11T10:56:03;35.05;;;13.43;;
36547;SDS011;22551;52.206;4.856;2022-12-11T11:01:07;31.77;;;14.55;;
36547;SDS011;22551;52.206;4.856;2022-12-11T11:11:23;32.88;;;13.75;;
36547;SDS011;22551;52.206;4.856;2022-12-11T11:16:29;30.20;;;12.23;;
36547;SDS011;22551;52.206;4.856;2022-12-11T11:21:33;31.52;;;13.63;;
36547;SDS011;22551;52.206;4.856;2022-12-11T11:26:37;30.33;;;12.52;;
36547;SDS011;22551;52.206;4.856;2022-12-11T11:31:40;36.58;;;14.65;;
36547;SDS011;22551;52.206;4.856;2022-12-11T11:36:42;34.10;;;13.20;;
36547;SDS011;22551;52.206;4.856;2022-12-11T11:41:47;29.48;;;12.65;;
36547;SDS011;22551;52.206;4.856;2022-12-11T11:46:57;30.75;;;12.65;;
36547;SDS011;22551;52.206;4.856;2022-12-11T11:52:06;31.77;;;13.15;;
36547;SDS011;22551;52.206;4.856;2022-12-11T11:57:19;29.58;;;12.48;;
36547;SDS011;22551;52.206;4.856;2022-12-11T12:02:29;32.78;;;13.13;;
36547;SDS011;22551;52.206;4.856;2022-12-11T12:07:33;34.78;;;13.65;;
36547;SDS011;22551;52.206;4.856;2022-12-11T12:12:48;32.88;;;12.65;;
36547;SDS011;22551;52.206;4.856;2022-12-11T12:18:01;30.90;;;13.00;;
36547;SDS011;22551;52.206;4.856;2022-12-11T12:23:17;34.67;;;12.88;;
36547;SDS011;22551;52.206;4.856;2022-12-11T12:28:42;30.88;;;13.18;;
36547;SDS011;22551;52.206;4.856;2022-12-11T12:33:56;31.23;;;12.60;;
36547;SDS011;22551;52.206;4.856;2022-12-11T12:39:10;36.85;;;13.30;;
36547;SDS011;22551;52.206;4.856;2022-12-11T12:44:21;37.10;;;12.95;;
36547;SDS011;22551;52.206;4.856;2022-12-11T12:49:27;34.38;;;14.23;;
36547;SDS011;22551;52.206;4.856;2022-12-11T12:54:37;35.78;;;13.23;;
36547;SDS011;22551;52.206;4.856;2022-12-11T13:00:05;38.15;;;14.02;;
36547;SDS011;22551;52.206;4.856;2022-12-11T13:05:18;32.60;;;14.68;;
36547;SDS011;22551;52.206;4.856;2022-12-11T13:10:27;35.25;;;14.00;;
36547;SDS011;22551;52.206;4.856;2022-12-11T13:15:40;41.78;;;13.18;;
36547;SDS011;22551;52.206;4.856;2022-12-11T13:20:45;41.17;;;14.48;;
36547;SDS011;22551;52.206;4.856;2022-12-11T13:25:51;39.95;;;15.27;;
36547;SDS011;22551;52.206;4.856;2022-12-11T13:30:59;42.17;;;14.48;;
36547;SDS011;22551;52.206;4.856;2022-12-11T13:36:29;36.20;;;13.02;;
36547;SDS011;22551;52.206;4.856;2022-12-11T13:41:34;37.17;;;14.40;;
36547;SDS011;22551;52.206;4.856;2022-12-11T13:46:39;35.60;;;15.18;;
36547;SDS011;22551;52.206;4.856;2022-12-11T13:51:49;36.38;;;14.77;;
36547;SDS011;22551;52.206;4.856;2022-12-11T13:56:56;38.13;;;14.90;;
36547;SDS011;22551;52.206;4.856;2022-12-11T14:02:04;40.10;;;14.32;;
36547;SDS011;22551;52.206;4.856;2022-12-11T14:07:15;38.50;;;14.48;;
36547;SDS011;22551;52.206;4.856;2022-12-11T14:12:25;40.47;;;13.23;;
36547;SDS011;22551;52.206;4.856;2022-12-11T14:17:32;40.20;;;15.07;;
36547;SDS011;22551;52.206;4.856;2022-12-11T14:22:35;34.45;;;14.40;;
36547;SDS011;22551;52.206;4.856;2022-12-11T14:27:45;35.72;;;14.00;;
36547;SDS011;22551;52.206;4.856;2022-12-11T14:32:51;34.65;;;13.88;;
36547;SDS011;22551;52.206;4.856;2022-12-11T14:37:59;36.35;;;13.20;;
36547;SDS011;22551;52.206;4.856;2022-12-11T14:43:06;38.70;;;13.70;;
36547;SDS011;22551;52.206;4.856;2022-12-11T14:48:15;36.25;;;12.45;;
36547;SDS011;22551;52.206;4.856;2022-12-11T14:53:22;39.40;;;13.90;;
36547;SDS011;22551;52.206;4.856;2022-12-11T14:58:28;31.33;;;14.27;;
36547;SDS011;22551;52.206;4.856;2022-12-11T15:03:33;38.45;;;13.20;;
36547;SDS011;22551;52.206;4.856;2022-12-11T15:08:37;29.23;;;12.43;;
36547;SDS011;22551;52.206;4.856;2022-12-11T15:13:46;38.50;;;13.83;;
36547;SDS011;22551;52.206;4.856;2022-12-11T15:18:55;43.13;;;14.43;;
36547;SDS011;22551;52.206;4.856;2022-12-11T15:23:58;38.63;;;13.60;;
36547;SDS011;22551;52.206;4.856;2022-12-11T15:29:21;35.38;;;13.98;;
36547;SDS011;22551;52.206;4.856;2022-12-11T15:34:32;35.03;;;13.13;;
36547;SDS011;22551;52.206;4.856;2022-12-11T15:39:35;36.60;;;14.02;;
36547;SDS011;22551;52.206;4.856;2022-12-11T15:44:37;39.75;;;13.88;;
36547;SDS011;22551;52.206;4.856;2022-12-11T15:49:43;34.67;;;14.25;;
36547;SDS011;22551;52.206;4.856;2022-12-11T15:54:45;35.13;;;12.98;;
36547;SDS011;22551;52.206;4.856;2022-12-11T15:59:49;37.90;;;13.90;;
36547;SDS011;22551;52.206;4.856;2022-12-11T16:04:54;35.17;;;14.15;;
36547;SDS011;22551;52.206;4.856;2022-12-11T16:09:57;30.98;;;13.48;;
36547;SDS011;22551;52.206;4.856;2022-12-11T16:14:59;35.17;;;12.98;;
36547;SDS011;22551;52.206;4.856;2022-12-11T16:20:04;32.50;;;13.32;;
36547;SDS011;22551;52.206;4.856;2022-12-11T16:25:08;32.42;;;12.18;;
36547;SDS011;22551;52.206;4.856;2022-12-11T16:30:11;36.22;;;14.40;;
36547;SDS011;22551;52.206;4.856;2022-12-11T16:35:16;36.38;;;14.13;;
36547;SDS011;22551;52.206;4.856;2022-12-11T16:40:19;33.08;;;13.77;;
36547;SDS011;22551;52.206;4.856;2022-12-11T16:45:23;43.97;;;14.20;;
36547;SDS011;22551;52.206;4.856;2022-12-11T16:50:28;40.38;;;15.95;;
36547;SDS011;22551;52.206;4.856;2022-12-11T16:55:31;34.05;;;14.07;;
36547;SDS011;22551;52.206;4.856;2022-12-11T17:00:33;32.33;;;14.32;;
36547;SDS011;22551;52.206;4.856;2022-12-11T17:05:38;32.33;;;12.52;;
36547;SDS011;22551;52.206;4.856;2022-12-11T17:10:42;31.67;;;13.25;;
36547;SDS011;22551;52.206;4.856;2022-12-11T17:15:44;31.20;;;13.43;;
36547;SDS011;22551;52.206;4.856;2022-12-11T17:20:49;28.40;;;12.07;;
36547;SDS011;22551;52.206;4.856;2022-12-11T17:25:52;33.15;;;14.30;;
36547;SDS011;22551;52.206;4.856;2022-12-11T17:30:54;34.03;;;12.75;;
36547;SDS011;22551;52.206;4.856;2022-12-11T17:35:59;33.28;;;14.57;;
36547;SDS011;22551;52.206;4.856;2022-12-11T17:41:04;35.78;;;13.18;;
36547;SDS011;22551;52.206;4.856;2022-12-11T17:46:07;29.35;;;13.10;;
36547;SDS011;22551;52.206;4.856;2022-12-11T17:51:13;32.13;;;13.02;;
36547;SDS011;22551;52.206;4.856;2022-12-11T17:56:22;29.88;;;13.52;;
36547;SDS011;22551;52.206;4.856;2022-12-11T18:01:25;29.35;;;13.13;;
36547;SDS011;22551;52.206;4.856;2022-12-11T18:06:29;29.17;;;13.15;;
36547;SDS011;22551;52.206;4.856;2022-12-11T18:11:32;30.48;;;13.70;;
36547;SDS011;22551;52.206;4.856;2022-12-11T18:16:35;28.20;;;12.27;;
36547;SDS011;22551;52.206;4.856;2022-12-11T18:21:42;31.58;;;12.98;;
36547;SDS011;22551;52.206;4.856;2022-12-11T18:26:45;31.60;;;12.43;;
36547;SDS011;22551;52.206;4.856;2022-12-11T18:31:47;30.42;;;12.75;;
36547;SDS011;22551;52.206;4.856;2022-12-11T18:36:59;31.90;;;12.18;;
36547;SDS011;22551;52.206;4.856;2022-12-11T18:42:01;31.08;;;12.60;;
36547;SDS011;22551;52.206;4.856;2022-12-11T18:47:05;34.22;;;12.77;;
36547;SDS011;22551;52.206;4.856;2022-12-11T18:52:09;31.02;;;13.02;;
36547;SDS011;22551;52.206;4.856;2022-12-11T18:57:13;32.33;;;12.48;;
36547;SDS011;22551;52.206;4.856;2022-12-11T19:02:15;32.00;;;13.13;;
36547;SDS011;22551;52.206;4.856;2022-12-11T19:07:22;32.80;;;12.33;;
36547;SDS011;22551;52.206;4.856;2022-12-11T19:12:24;28.27;;;12.18;;
36547;SDS011;22551;52.206;4.856;2022-12-11T19:17:26;28.40;;;11.90;;
36547;SDS011;22551;52.206;4.856;2022-12-11T19:22:30;24.55;;;11.40;;
36547;SDS011;22551;52.206;4.856;2022-12-11T19:27:33;27.85;;;11.23;;
36547;SDS011;22551;52.206;4.856;2022-12-11T19:32:35;25.20;;;9.95;;
36547;SDS011;22551;52.206;4.856;2022-12-11T19:37:39;21.08;;;11.18;;
36547;SDS011;22551;52.206;4.856;2022-12-11T19:42:41;26.58;;;11.68;;
36547;SDS011;22551;52.206;4.856;2022-12-11T19:47:44;31.90;;;12.50;;
36547;SDS011;22551;52.206;4.856;2022-12-11T19:52:47;30.17;;;12.55;;
36547;SDS011;22551;52.206;4.856;2022-12-11T19:57:49;27.85;;;11.73;;
36547;SDS011;22551;52.206;4.856;2022-12-11T20:02:52;25.77;;;11.60;;
36547;SDS011;22551;52.206;4.856;2022-12-11T20:07:55;29.35;;;12.20;;
36547;SDS011;22551;52.206;4.856;2022-12-11T20:12:59;26.35;;;10.40;;
36547;SDS011;22551;52.206;4.856;2022-12-11T20:18:01;30.90;;;13.15;;
36547;SDS011;22551;52.206;4.856;2022-12-11T20:23:05;29.02;;;12.00;;
36547;SDS011;22551;52.206;4.856;2022-12-11T20:28:08;33.45;;;14.40;;
36547;SDS011;22551;52.206;4.856;2022-12-11T20:33:11;28.35;;;11.80;;
36547;SDS011;22551;52.206;4.856;2022-12-11T20:38:15;29.08;;;13.57;;
36547;SDS011;22551;52.206;4.856;2022-12-11T20:43:17;37.70;;;15.10;;
36547;SDS011;22551;52.206;4.856;2022-12-11T20:48:19;30.63;;;12.48;;
36547;SDS011;22551;52.206;4.856;2022-12-11T20:53:23;31.65;;;12.88;;
36547;SDS011;22551;52.206;4.856;2022-12-11T21:03:31;29.17;;;11.77;;
36547;SDS011;22551;52.206;4.856;2022-12-11T21:08:36;28.48;;;11.43;;
36547;SDS011;22551;52.206;4.856;2022-12-11T21:13:38;29.88;;;11.57;;
36547;SDS011;22551;52.206;4.856;2022-12-11T21:18:41;30.20;;;11.30;;
36547;SDS011;22551;52.206;4.856;2022-12-11T21:23:46;30.17;;;12.30;;
36547;SDS011;22551;52.206;4.856;2022-12-11T21:28:49;27.08;;;11.18;;
36547;SDS011;22551;52.206;4.856;2022-12-11T21:33:55;27.80;;;11.85;;
36547;SDS011;22551;52.206;4.856;2022-12-11T21:39:00;27.25;;;11.85;;
36547;SDS011;22551;52.206;4.856;2022-12-11T21:44:04;25.00;;;11.00;;
36547;SDS011;22551;52.206;4.856;2022-12-11T21:49:06;22.92;;;10.93;;
36547;SDS011;22551;52.206;4.856;2022-12-11T21:54:11;27.95;;;11.50;;
36547;SDS011;22551;52.206;4.856;2022-12-11T21:59:16;27.88;;;11.63;;
36547;SDS011;22551;52.206;4.856;2022-12-11T22:04:18;25.23;;;11.30;;
36547;SDS011;22551;52.206;4.856;2022-12-11T22:09:22;28.92;;;12.55;;
36547;SDS011;22551;52.206;4.856;2022-12-11T22:14:25;25.77;;;10.85;;
36547;SDS011;22551;52.206;4.856;2022-12-11T22:19:29;21.43;;;10.97;;
36547;SDS011;22551;52.206;4.856;2022-12-11T22:24:33;24.90;;;10.90;;
36547;SDS011;22551;52.206;4.856;2022-12-11T22:29:36;26.25;;;10.90;;
36547;SDS011;22551;52.206;4.856;2022-12-11T22:34:38;31.50;;;10.68;;
36547;SDS011;22551;52.206;4.856;2022-12-11T22:39:45;29.83;;;12.30;;
36547;SDS011;22551;52.206;4.856;2022-12-11T22:44:47;24.17;;;10.82;;
36547;SDS011;22551;52.206;4.856;2022-12-11T22:49:50;25.10;;;11.80;;
36547;SDS011;22551;52.206;4.856;2022-12-11T22:54:56;26.17;;;10.98;;
36547;SDS011;22551;52.206;4.856;2022-12-11T22:59:58;25.58;;;12.00;;
36547;SDS011;22551;52.206;4.856;2022-12-11T23:05:00;31.25;;;12.23;;
36547;SDS011;22551;52.206;4.856;2022-12-11T23:10:05;28.45;;;11.40;;
36547;SDS011;22551;52.206;4.856;2022-12-11T23:15:09;25.25;;;11.70;;
36547;SDS011;22551;52.206;4.856;2022-12-11T23:20:12;23.35;;;9.43;;
36547;SDS011;22551;52.206;4.856;2022-12-11T23:25:15;25.48;;;11.30;;
36547;SDS011;22551;52.206;4.856;2022-12-11T23:30:18;23.40;;;11.30;;
36547;SDS011;22551;52.206;4.856;2022-12-11T23:35:20;24.52;;;11.45;;
36547;SDS011;22551;52.206;4.856;2022-12-11T23:40:24;23.75;;;10.10;;
36547;SDS011;22551;52.206;4.856;2022-12-11T23:45:26;22.52;;;9.30;;
36547;SDS011;22551;52.206;4.856;2022-12-11T23:50:28;22.80;;;10.75;;
36547;SDS011;22551;52.206;4.856;2022-12-11T23:55:33;23.38;;;11.13;;
